sensor_id;sensor_type;location;lat;lon;timestamp;P1;durP1;ratioP1;P2;durP2;ratioP2
28373;SDS011;15616;40.148;-102.718;2022-08-26T00:01:47;21.73;;;14.43;;
28373;SDS011;15616;40.148;-102.718;2022-08-26T00:04:14;22.65;;;14.80;;
28373;SDS011;15616;40.148;-102.718;2022-08-26T00:06:39;18.40;;;14.85;;
28373;SDS011;15616;40.148;-102.718;2022-08-26T00:09:05;19.55;;;14.63;;
28373;SDS011;15616;40.148;-102.718;2022-08-26T00:11:31;21.85;;;15.02;;
28373;SDS011;15616;40.148;-102.718;2022-08-26T00:13:57;18.60;;;14.30;;
28373;SDS011;15616;40.148;-102.718;2022-08-26T00:16:24;20.98;;;14.73;;
28373;SDS011;15616;40.148;-102.718;2022-08-26T00:18:52;18.23;;;14.30;;
28373;SDS011;15616;40.148;-102.718;2022-08-26T00:21:18;20.38;;;14.82;;
28373;SDS011;15616;40.148;-102.718;2022-08-26T00:23:44;21.08;;;13.90;;
28373;SDS011;15616;40.148;-102.718;2022-08-26T00:26:11;21.40;;;14.95;;
28373;SDS011;15616;40.148;-102.718;2022-08-26T00:28:38;22.38;;;14.75;;
28373;SDS011;15616;40.148;-102.718;2022-08-26T00:31:04;18.58;;;14.55;;
28373;SDS011;15616;40.148;-102.718;2022-08-26T00:33:31;20.52;;;14.30;;
28373;SDS011;15616;40.148;-102.718;2022-08-26T00:35:57;20.58;;;14.10;;
28373;SDS011;15616;40.148;-102.718;2022-08-26T00:38:23;23.85;;;15.55;;
28373;SDS011;15616;40.148;-102.718;2022-08-26T00:40:51;23.42;;;13.98;;
28373;SDS011;15616;40.148;-102.718;2022-08-26T00:43:19;19.02;;;14.38;;
28373;SDS011;15616;40.148;-102.718;2022-08-26T00:45:54;20.70;;;13.88;;
28373;SDS011;15616;40.148;-102.718;2022-08-26T00:48:31;21.10;;;15.23;;
28373;SDS011;15616;40.148;-102.718;2022-08-26T00:51:02;18.58;;;14.15;;
28373;SDS011;15616;40.148;-102.718;2022-08-26T00:53:33;20.27;;;14.50;;
28373;SDS011;15616;40.148;-102.718;2022-08-26T00:56:20;26.75;;;14.43;;
28373;SDS011;15616;40.148;-102.718;2022-08-26T00:58:47;20.42;;;14.18;;
28373;SDS011;15616;40.148;-102.718;2022-08-26T01:01:14;20.27;;;13.98;;
28373;SDS011;15616;40.148;-102.718;2022-08-26T01:03:42;18.48;;;14.10;;
28373;SDS011;15616;40.148;-102.718;2022-08-26T01:06:10;21.75;;;14.93;;
28373;SDS011;15616;40.148;-102.718;2022-08-26T01:08:37;20.55;;;13.98;;
28373;SDS011;15616;40.148;-102.718;2022-08-26T01:11:04;19.70;;;14.50;;
28373;SDS011;15616;40.148;-102.718;2022-08-26T01:13:30;20.67;;;14.63;;
28373;SDS011;15616;40.148;-102.718;2022-08-26T01:15:58;21.02;;;13.90;;
28373;SDS011;15616;40.148;-102.718;2022-08-26T01:18:26;16.48;;;13.50;;
28373;SDS011;15616;40.148;-102.718;2022-08-26T01:23:45;20.58;;;14.13;;
28373;SDS011;15616;40.148;-102.718;2022-08-26T01:26:18;16.88;;;13.25;;
28373;SDS011;15616;40.148;-102.718;2022-08-26T01:28:50;18.67;;;14.45;;
28373;SDS011;15616;40.148;-102.718;2022-08-26T01:31:21;18.95;;;14.45;;
28373;SDS011;15616;40.148;-102.718;2022-08-26T01:34:13;17.75;;;13.70;;
28373;SDS011;15616;40.148;-102.718;2022-08-26T01:36:41;19.25;;;15.32;;
28373;SDS011;15616;40.148;-102.718;2022-08-26T01:39:08;20.40;;;14.43;;
28373;SDS011;15616;40.148;-102.718;2022-08-26T01:41:34;16.88;;;13.75;;
28373;SDS011;15616;40.148;-102.718;2022-08-26T01:44:02;19.98;;;14.57;;
28373;SDS011;15616;40.148;-102.718;2022-08-26T01:46:30;18.17;;;13.73;;
28373;SDS011;15616;40.148;-102.718;2022-08-26T01:48:59;19.00;;;13.63;;
28373;SDS011;15616;40.148;-102.718;2022-08-26T01:51:28;20.05;;;13.65;;
28373;SDS011;15616;40.148;-102.718;2022-08-26T01:53:56;20.05;;;13.57;;
28373;SDS011;15616;40.148;-102.718;2022-08-26T01:56:22;19.38;;;13.77;;
28373;SDS011;15616;40.148;-102.718;2022-08-26T01:58:53;19.45;;;14.48;;
28373;SDS011;15616;40.148;-102.718;2022-08-26T02:01:21;20.27;;;13.90;;
28373;SDS011;15616;40.148;-102.718;2022-08-26T02:03:50;20.92;;;14.15;;
28373;SDS011;15616;40.148;-102.718;2022-08-26T02:06:40;21.52;;;13.80;;
28373;SDS011;15616;40.148;-102.718;2022-08-26T02:09:07;18.13;;;13.82;;
28373;SDS011;15616;40.148;-102.718;2022-08-26T02:11:33;16.10;;;13.55;;
28373;SDS011;15616;40.148;-102.718;2022-08-26T02:14:01;17.90;;;14.27;;
28373;SDS011;15616;40.148;-102.718;2022-08-26T02:16:33;17.35;;;14.02;;
28373;SDS011;15616;40.148;-102.718;2022-08-26T02:19:03;16.90;;;13.88;;
28373;SDS011;15616;40.148;-102.718;2022-08-26T02:21:30;20.88;;;13.85;;
28373;SDS011;15616;40.148;-102.718;2022-08-26T02:24:04;18.63;;;13.23;;
28373;SDS011;15616;40.148;-102.718;2022-08-26T02:26:33;19.23;;;13.88;;
28373;SDS011;15616;40.148;-102.718;2022-08-26T02:29:06;19.65;;;13.50;;
28373;SDS011;15616;40.148;-102.718;2022-08-26T02:31:52;20.05;;;14.23;;
28373;SDS011;15616;40.148;-102.718;2022-08-26T02:34:26;19.15;;;14.02;;
28373;SDS011;15616;40.148;-102.718;2022-08-26T02:36:57;20.17;;;13.98;;
28373;SDS011;15616;40.148;-102.718;2022-08-26T02:39:25;20.20;;;14.40;;
28373;SDS011;15616;40.148;-102.718;2022-08-26T02:41:51;18.75;;;13.93;;
28373;SDS011;15616;40.148;-102.718;2022-08-26T02:44:17;19.30;;;13.73;;
28373;SDS011;15616;40.148;-102.718;2022-08-26T02:46:43;17.58;;;13.50;;
28373;SDS011;15616;40.148;-102.718;2022-08-26T02:49:09;17.90;;;14.07;;
28373;SDS011;15616;40.148;-102.718;2022-08-26T02:51:35;16.17;;;13.18;;
28373;SDS011;15616;40.148;-102.718;2022-08-26T02:54:02;19.25;;;13.23;;
28373;SDS011;15616;40.148;-102.718;2022-08-26T02:56:29;19.65;;;13.40;;
28373;SDS011;15616;40.148;-102.718;2022-08-26T02:58:57;17.52;;;13.13;;
28373;SDS011;15616;40.148;-102.718;2022-08-26T03:01:24;19.50;;;13.90;;
28373;SDS011;15616;40.148;-102.718;2022-08-26T03:03:52;20.08;;;13.77;;
28373;SDS011;15616;40.148;-102.718;2022-08-26T03:06:18;19.48;;;13.48;;
28373;SDS011;15616;40.148;-102.718;2022-08-26T03:08:45;21.23;;;13.45;;
28373;SDS011;15616;40.148;-102.718;2022-08-26T03:11:11;18.25;;;13.60;;
28373;SDS011;15616;40.148;-102.718;2022-08-26T03:13:38;18.30;;;13.23;;
28373;SDS011;15616;40.148;-102.718;2022-08-26T03:16:05;18.60;;;13.70;;
28373;SDS011;15616;40.148;-102.718;2022-08-26T03:18:32;18.73;;;13.98;;
28373;SDS011;15616;40.148;-102.718;2022-08-26T03:21:03;17.90;;;13.43;;
28373;SDS011;15616;40.148;-102.718;2022-08-26T03:23:35;16.10;;;13.13;;
28373;SDS011;15616;40.148;-102.718;2022-08-26T03:26:02;18.58;;;13.45;;
28373;SDS011;15616;40.148;-102.718;2022-08-26T03:28:29;17.30;;;13.23;;
28373;SDS011;15616;40.148;-102.718;2022-08-26T03:30:56;17.00;;;13.25;;
28373;SDS011;15616;40.148;-102.718;2022-08-26T03:33:22;18.40;;;13.40;;
28373;SDS011;15616;40.148;-102.718;2022-08-26T03:35:49;18.40;;;13.10;;
28373;SDS011;15616;40.148;-102.718;2022-08-26T03:38:17;19.42;;;13.77;;
28373;SDS011;15616;40.148;-102.718;2022-08-26T03:40:44;17.83;;;12.98;;
28373;SDS011;15616;40.148;-102.718;2022-08-26T03:43:10;18.08;;;13.30;;
28373;SDS011;15616;40.148;-102.718;2022-08-26T03:45:37;19.15;;;12.95;;
28373;SDS011;15616;40.148;-102.718;2022-08-26T03:48:05;16.48;;;13.38;;
28373;SDS011;15616;40.148;-102.718;2022-08-26T03:50:31;16.98;;;13.07;;
28373;SDS011;15616;40.148;-102.718;2022-08-26T03:52:58;16.75;;;12.77;;
28373;SDS011;15616;40.148;-102.718;2022-08-26T03:55:25;16.60;;;13.55;;
28373;SDS011;15616;40.148;-102.718;2022-08-26T03:57:55;19.25;;;13.63;;
28373;SDS011;15616;40.148;-102.718;2022-08-26T04:00:21;19.05;;;13.80;;
28373;SDS011;15616;40.148;-102.718;2022-08-26T04:02:48;17.85;;;13.43;;
28373;SDS011;15616;40.148;-102.718;2022-08-26T04:05:16;17.65;;;13.13;;
28373;SDS011;15616;40.148;-102.718;2022-08-26T04:07:44;16.58;;;13.25;;
28373;SDS011;15616;40.148;-102.718;2022-08-26T04:10:11;18.35;;;13.30;;
28373;SDS011;15616;40.148;-102.718;2022-08-26T04:12:40;18.35;;;13.25;;
28373;SDS011;15616;40.148;-102.718;2022-08-26T04:15:07;15.27;;;12.60;;
28373;SDS011;15616;40.148;-102.718;2022-08-26T04:17:36;20.02;;;13.60;;
28373;SDS011;15616;40.148;-102.718;2022-08-26T04:20:03;15.88;;;12.75;;
28373;SDS011;15616;40.148;-102.718;2022-08-26T04:22:30;19.48;;;13.45;;
28373;SDS011;15616;40.148;-102.718;2022-08-26T04:24:57;19.92;;;13.65;;
28373;SDS011;15616;40.148;-102.718;2022-08-26T04:27:23;18.13;;;13.27;;
28373;SDS011;15616;40.148;-102.718;2022-08-26T04:29:49;16.83;;;13.38;;
28373;SDS011;15616;40.148;-102.718;2022-08-26T04:32:15;16.52;;;12.98;;
28373;SDS011;15616;40.148;-102.718;2022-08-26T04:34:41;16.35;;;12.25;;
28373;SDS011;15616;40.148;-102.718;2022-08-26T04:37:08;17.75;;;13.02;;
28373;SDS011;15616;40.148;-102.718;2022-08-26T04:39:34;19.52;;;13.20;;
28373;SDS011;15616;40.148;-102.718;2022-08-26T04:42:00;18.50;;;13.15;;
28373;SDS011;15616;40.148;-102.718;2022-08-26T04:44:27;18.50;;;12.73;;
28373;SDS011;15616;40.148;-102.718;2022-08-26T04:46:55;15.93;;;12.48;;
28373;SDS011;15616;40.148;-102.718;2022-08-26T04:49:22;16.10;;;12.60;;
28373;SDS011;15616;40.148;-102.718;2022-08-26T04:51:48;16.88;;;12.45;;
28373;SDS011;15616;40.148;-102.718;2022-08-26T04:54:14;16.45;;;12.40;;
28373;SDS011;15616;40.148;-102.718;2022-08-26T04:56:41;16.35;;;12.38;;
28373;SDS011;15616;40.148;-102.718;2022-08-26T04:59:10;16.92;;;12.38;;
28373;SDS011;15616;40.148;-102.718;2022-08-26T05:01:47;21.38;;;12.18;;
28373;SDS011;15616;40.148;-102.718;2022-08-26T05:04:16;15.80;;;12.00;;
28373;SDS011;15616;40.148;-102.718;2022-08-26T05:06:43;16.30;;;11.80;;
28373;SDS011;15616;40.148;-102.718;2022-08-26T05:09:09;18.38;;;12.13;;
28373;SDS011;15616;40.148;-102.718;2022-08-26T05:11:36;16.77;;;12.07;;
28373;SDS011;15616;40.148;-102.718;2022-08-26T05:14:03;16.73;;;12.00;;
28373;SDS011;15616;40.148;-102.718;2022-08-26T05:16:30;14.90;;;11.77;;
28373;SDS011;15616;40.148;-102.718;2022-08-26T05:18:56;15.30;;;11.50;;
28373;SDS011;15616;40.148;-102.718;2022-08-26T05:21:24;15.82;;;11.50;;
28373;SDS011;15616;40.148;-102.718;2022-08-26T05:23:53;14.25;;;11.75;;
28373;SDS011;15616;40.148;-102.718;2022-08-26T05:26:21;15.27;;;12.32;;
28373;SDS011;15616;40.148;-102.718;2022-08-26T05:28:50;17.10;;;11.90;;
28373;SDS011;15616;40.148;-102.718;2022-08-26T05:31:18;17.63;;;12.05;;
28373;SDS011;15616;40.148;-102.718;2022-08-26T05:33:46;14.90;;;11.55;;
28373;SDS011;15616;40.148;-102.718;2022-08-26T05:36:13;15.75;;;11.85;;
28373;SDS011;15616;40.148;-102.718;2022-08-26T05:38:41;30.10;;;12.18;;
28373;SDS011;15616;40.148;-102.718;2022-08-26T05:43:40;22.02;;;11.90;;
28373;SDS011;15616;40.148;-102.718;2022-08-26T05:46:06;17.35;;;11.02;;
28373;SDS011;15616;40.148;-102.718;2022-08-26T05:48:32;18.52;;;11.80;;
28373;SDS011;15616;40.148;-102.718;2022-08-26T05:51:01;20.60;;;11.65;;
28373;SDS011;15616;40.148;-102.718;2022-08-26T05:53:29;16.15;;;11.55;;
28373;SDS011;15616;40.148;-102.718;2022-08-26T05:55:56;17.52;;;11.63;;
28373;SDS011;15616;40.148;-102.718;2022-08-26T05:58:22;22.42;;;11.80;;
28373;SDS011;15616;40.148;-102.718;2022-08-26T06:00:56;17.17;;;11.57;;
28373;SDS011;15616;40.148;-102.718;2022-08-26T06:03:24;16.42;;;11.20;;
28373;SDS011;15616;40.148;-102.718;2022-08-26T06:05:50;21.08;;;11.98;;
28373;SDS011;15616;40.148;-102.718;2022-08-26T06:08:16;18.20;;;11.02;;
28373;SDS011;15616;40.148;-102.718;2022-08-26T06:10:47;23.33;;;10.70;;
28373;SDS011;15616;40.148;-102.718;2022-08-26T06:13:22;17.83;;;10.73;;
28373;SDS011;15616;40.148;-102.718;2022-08-26T06:15:51;24.08;;;10.93;;
28373;SDS011;15616;40.148;-102.718;2022-08-26T06:18:20;16.58;;;10.32;;
28373;SDS011;15616;40.148;-102.718;2022-08-26T06:20:55;18.65;;;10.88;;
28373;SDS011;15616;40.148;-102.718;2022-08-26T06:23:21;20.10;;;11.27;;
28373;SDS011;15616;40.148;-102.718;2022-08-26T06:26:05;23.58;;;10.82;;
28373;SDS011;15616;40.148;-102.718;2022-08-26T06:28:31;22.42;;;11.13;;
28373;SDS011;15616;40.148;-102.718;2022-08-26T06:30:57;18.10;;;10.52;;
28373;SDS011;15616;40.148;-102.718;2022-08-26T06:33:23;18.70;;;10.15;;
28373;SDS011;15616;40.148;-102.718;2022-08-26T06:35:53;24.92;;;10.60;;
28373;SDS011;15616;40.148;-102.718;2022-08-26T06:38:19;21.48;;;9.63;;
28373;SDS011;15616;40.148;-102.718;2022-08-26T06:40:47;22.65;;;10.20;;
28373;SDS011;15616;40.148;-102.718;2022-08-26T06:43:15;28.23;;;10.50;;
28373;SDS011;15616;40.148;-102.718;2022-08-26T06:45:47;20.05;;;10.52;;
28373;SDS011;15616;40.148;-102.718;2022-08-26T06:48:15;23.35;;;10.18;;
28373;SDS011;15616;40.148;-102.718;2022-08-26T06:50:43;25.42;;;10.27;;
28373;SDS011;15616;40.148;-102.718;2022-08-26T06:53:09;23.30;;;10.52;;
28373;SDS011;15616;40.148;-102.718;2022-08-26T06:55:41;26.73;;;11.27;;
28373;SDS011;15616;40.148;-102.718;2022-08-26T06:58:09;34.15;;;10.98;;
28373;SDS011;15616;40.148;-102.718;2022-08-26T07:00:36;24.75;;;9.75;;
28373;SDS011;15616;40.148;-102.718;2022-08-26T07:03:03;28.83;;;9.75;;
28373;SDS011;15616;40.148;-102.718;2022-08-26T07:05:31;21.55;;;10.32;;
28373;SDS011;15616;40.148;-102.718;2022-08-26T07:07:58;30.15;;;10.48;;
28373;SDS011;15616;40.148;-102.718;2022-08-26T07:10:24;27.42;;;10.38;;
28373;SDS011;15616;40.148;-102.718;2022-08-26T07:12:51;17.95;;;9.93;;
28373;SDS011;15616;40.148;-102.718;2022-08-26T07:15:18;21.83;;;10.98;;
28373;SDS011;15616;40.148;-102.718;2022-08-26T07:17:44;27.02;;;11.20;;
28373;SDS011;15616;40.148;-102.718;2022-08-26T07:20:10;27.00;;;9.88;;
28373;SDS011;15616;40.148;-102.718;2022-08-26T07:22:37;16.95;;;10.20;;
28373;SDS011;15616;40.148;-102.718;2022-08-26T07:25:04;27.05;;;10.23;;
28373;SDS011;15616;40.148;-102.718;2022-08-26T07:27:35;18.92;;;9.68;;
28373;SDS011;15616;40.148;-102.718;2022-08-26T07:30:03;20.08;;;10.65;;
28373;SDS011;15616;40.148;-102.718;2022-08-26T07:32:30;29.70;;;10.85;;
28373;SDS011;15616;40.148;-102.718;2022-08-26T07:34:56;25.38;;;10.38;;
28373;SDS011;15616;40.148;-102.718;2022-08-26T07:37:22;23.05;;;10.52;;
28373;SDS011;15616;40.148;-102.718;2022-08-26T07:39:49;27.77;;;9.55;;
28373;SDS011;15616;40.148;-102.718;2022-08-26T07:42:16;22.17;;;10.68;;
28373;SDS011;15616;40.148;-102.718;2022-08-26T07:44:43;25.48;;;10.32;;
28373;SDS011;15616;40.148;-102.718;2022-08-26T07:47:10;23.63;;;11.30;;
28373;SDS011;15616;40.148;-102.718;2022-08-26T07:49:36;30.17;;;10.77;;
28373;SDS011;15616;40.148;-102.718;2022-08-26T07:52:02;40.65;;;10.63;;
28373;SDS011;15616;40.148;-102.718;2022-08-26T07:54:29;40.88;;;10.27;;
28373;SDS011;15616;40.148;-102.718;2022-08-26T07:57:05;39.67;;;10.15;;
28373;SDS011;15616;40.148;-102.718;2022-08-26T07:59:31;21.02;;;10.02;;
28373;SDS011;15616;40.148;-102.718;2022-08-26T08:01:58;27.48;;;9.68;;
28373;SDS011;15616;40.148;-102.718;2022-08-26T08:04:24;31.58;;;10.60;;
28373;SDS011;15616;40.148;-102.718;2022-08-26T08:06:51;27.70;;;9.90;;
28373;SDS011;15616;40.148;-102.718;2022-08-26T08:09:17;26.40;;;10.30;;
28373;SDS011;15616;40.148;-102.718;2022-08-26T08:11:43;31.88;;;9.52;;
28373;SDS011;15616;40.148;-102.718;2022-08-26T08:14:09;27.05;;;10.00;;
28373;SDS011;15616;40.148;-102.718;2022-08-26T08:16:35;24.88;;;9.45;;
28373;SDS011;15616;40.148;-102.718;2022-08-26T08:19:01;33.15;;;10.43;;
28373;SDS011;15616;40.148;-102.718;2022-08-26T08:21:27;36.83;;;9.98;;
28373;SDS011;15616;40.148;-102.718;2022-08-26T08:23:54;27.73;;;10.25;;
28373;SDS011;15616;40.148;-102.718;2022-08-26T08:26:22;19.23;;;9.27;;
28373;SDS011;15616;40.148;-102.718;2022-08-26T08:28:52;28.58;;;9.80;;
28373;SDS011;15616;40.148;-102.718;2022-08-26T08:31:23;24.80;;;9.52;;
28373;SDS011;15616;40.148;-102.718;2022-08-26T08:33:51;27.27;;;10.43;;
28373;SDS011;15616;40.148;-102.718;2022-08-26T08:36:17;20.45;;;9.77;;
28373;SDS011;15616;40.148;-102.718;2022-08-26T08:38:43;32.55;;;9.40;;
28373;SDS011;15616;40.148;-102.718;2022-08-26T08:43:59;34.10;;;9.07;;
28373;SDS011;15616;40.148;-102.718;2022-08-26T08:46:26;24.50;;;9.30;;
28373;SDS011;15616;40.148;-102.718;2022-08-26T08:48:54;32.97;;;10.00;;
28373;SDS011;15616;40.148;-102.718;2022-08-26T08:53:52;27.10;;;8.93;;
28373;SDS011;15616;40.148;-102.718;2022-08-26T08:59:21;22.65;;;8.30;;
28373;SDS011;15616;40.148;-102.718;2022-08-26T09:07:12;18.63;;;8.77;;
28373;SDS011;15616;40.148;-102.718;2022-08-26T09:09:43;28.90;;;8.63;;
28373;SDS011;15616;40.148;-102.718;2022-08-26T09:12:17;33.38;;;9.30;;
28373;SDS011;15616;40.148;-102.718;2022-08-26T09:14:47;26.15;;;9.07;;
28373;SDS011;15616;40.148;-102.718;2022-08-26T09:20:45;32.13;;;9.20;;
28373;SDS011;15616;40.148;-102.718;2022-08-26T09:23:05;29.08;;;8.68;;
28373;SDS011;15616;40.148;-102.718;2022-08-26T09:25:31;27.20;;;8.52;;
28373;SDS011;15616;40.148;-102.718;2022-08-26T09:27:57;21.52;;;7.90;;
28373;SDS011;15616;40.148;-102.718;2022-08-26T09:30:24;28.75;;;9.10;;
28373;SDS011;15616;40.148;-102.718;2022-08-26T09:32:56;28.35;;;8.20;;
28373;SDS011;15616;40.148;-102.718;2022-08-26T09:35:34;23.48;;;7.75;;
28373;SDS011;15616;40.148;-102.718;2022-08-26T09:38:19;32.17;;;8.52;;
28373;SDS011;15616;40.148;-102.718;2022-08-26T09:40:53;29.00;;;8.75;;
28373;SDS011;15616;40.148;-102.718;2022-08-26T09:43:24;22.98;;;9.00;;
28373;SDS011;15616;40.148;-102.718;2022-08-26T09:45:51;23.83;;;8.98;;
28373;SDS011;15616;40.148;-102.718;2022-08-26T09:48:38;24.88;;;9.20;;
28373;SDS011;15616;40.148;-102.718;2022-08-26T09:53:51;23.90;;;8.80;;
28373;SDS011;15616;40.148;-102.718;2022-08-26T09:56:25;18.88;;;8.90;;
28373;SDS011;15616;40.148;-102.718;2022-08-26T09:58:53;21.20;;;8.77;;
28373;SDS011;15616;40.148;-102.718;2022-08-26T10:03:47;24.73;;;9.27;;
28373;SDS011;15616;40.148;-102.718;2022-08-26T10:08:42;17.10;;;8.40;;
28373;SDS011;15616;40.148;-102.718;2022-08-26T10:11:16;26.02;;;8.45;;
28373;SDS011;15616;40.148;-102.718;2022-08-26T10:14:16;20.85;;;8.68;;
28373;SDS011;15616;40.148;-102.718;2022-08-26T10:16:47;22.10;;;8.48;;
28373;SDS011;15616;40.148;-102.718;2022-08-26T10:19:22;19.17;;;7.85;;
28373;SDS011;15616;40.148;-102.718;2022-08-26T10:21:59;20.50;;;8.57;;
28373;SDS011;15616;40.148;-102.718;2022-08-26T10:24:30;27.70;;;8.20;;
28373;SDS011;15616;40.148;-102.718;2022-08-26T10:27:09;24.15;;;8.23;;
28373;SDS011;15616;40.148;-102.718;2022-08-26T10:29:53;28.80;;;8.30;;
28373;SDS011;15616;40.148;-102.718;2022-08-26T10:35:24;22.95;;;7.68;;
28373;SDS011;15616;40.148;-102.718;2022-08-26T10:37:55;18.88;;;8.00;;
28373;SDS011;15616;40.148;-102.718;2022-08-26T10:40:29;19.17;;;8.35;;
28373;SDS011;15616;40.148;-102.718;2022-08-26T10:43:14;20.88;;;8.07;;
28373;SDS011;15616;40.148;-102.718;2022-08-26T10:45:54;23.42;;;7.75;;
28373;SDS011;15616;40.148;-102.718;2022-08-26T10:51:18;23.67;;;7.82;;
28373;SDS011;15616;40.148;-102.718;2022-08-26T10:59:32;28.15;;;8.13;;
28373;SDS011;15616;40.148;-102.718;2022-08-26T11:10:06;23.48;;;8.40;;
28373;SDS011;15616;40.148;-102.718;2022-08-26T11:28:33;31.60;;;7.72;;
28373;SDS011;15616;40.148;-102.718;2022-08-26T11:31:00;36.60;;;8.10;;
28373;SDS011;15616;40.148;-102.718;2022-08-26T11:41:40;23.02;;;7.00;;
28373;SDS011;15616;40.148;-102.718;2022-08-26T11:44:08;23.88;;;7.55;;
28373;SDS011;15616;40.148;-102.718;2022-08-26T11:46:35;24.92;;;7.03;;
28373;SDS011;15616;40.148;-102.718;2022-08-26T11:49:03;34.53;;;7.45;;
28373;SDS011;15616;40.148;-102.718;2022-08-26T11:51:31;34.55;;;8.05;;
28373;SDS011;15616;40.148;-102.718;2022-08-26T11:54:17;26.63;;;7.65;;
28373;SDS011;15616;40.148;-102.718;2022-08-26T11:56:48;36.22;;;7.82;;
28373;SDS011;15616;40.148;-102.718;2022-08-26T11:59:28;29.00;;;6.93;;
28373;SDS011;15616;40.148;-102.718;2022-08-26T12:01:58;43.42;;;8.45;;
28373;SDS011;15616;40.148;-102.718;2022-08-26T12:04:26;50.88;;;8.70;;
28373;SDS011;15616;40.148;-102.718;2022-08-26T12:06:56;59.30;;;7.97;;
28373;SDS011;15616;40.148;-102.718;2022-08-26T12:11:52;43.72;;;7.35;;
28373;SDS011;15616;40.148;-102.718;2022-08-26T12:14:41;35.65;;;8.32;;
28373;SDS011;15616;40.148;-102.718;2022-08-26T12:17:17;39.47;;;8.07;;
28373;SDS011;15616;40.148;-102.718;2022-08-26T12:19:50;45.42;;;8.15;;
28373;SDS011;15616;40.148;-102.718;2022-08-26T12:24:58;33.50;;;7.97;;
28373;SDS011;15616;40.148;-102.718;2022-08-26T12:32:29;32.13;;;8.10;;
28373;SDS011;15616;40.148;-102.718;2022-08-26T12:34:56;45.70;;;8.82;;
28373;SDS011;15616;40.148;-102.718;2022-08-26T12:37:22;38.65;;;8.52;;
28373;SDS011;15616;40.148;-102.718;2022-08-26T12:39:51;22.90;;;8.18;;
28373;SDS011;15616;40.148;-102.718;2022-08-26T12:47:31;28.40;;;8.05;;
28373;SDS011;15616;40.148;-102.718;2022-08-26T12:52:32;42.45;;;8.50;;
28373;SDS011;15616;40.148;-102.718;2022-08-26T12:55:38;37.25;;;7.80;;
28373;SDS011;15616;40.148;-102.718;2022-08-26T13:00:41;36.55;;;7.63;;
28373;SDS011;15616;40.148;-102.718;2022-08-26T13:06:17;24.45;;;7.65;;
28373;SDS011;15616;40.148;-102.718;2022-08-26T13:14:11;34.03;;;7.15;;
28373;SDS011;15616;40.148;-102.718;2022-08-26T13:16:39;30.50;;;7.53;;
28373;SDS011;15616;40.148;-102.718;2022-08-26T13:19:09;29.08;;;7.70;;
28373;SDS011;15616;40.148;-102.718;2022-08-26T13:21:51;28.25;;;7.20;;
28373;SDS011;15616;40.148;-102.718;2022-08-26T13:24:20;29.25;;;7.03;;
28373;SDS011;15616;40.148;-102.718;2022-08-26T13:26:50;34.35;;;7.55;;
28373;SDS011;15616;40.148;-102.718;2022-08-26T13:29:16;43.92;;;7.47;;
28373;SDS011;15616;40.148;-102.718;2022-08-26T13:31:44;50.05;;;7.75;;
28373;SDS011;15616;40.148;-102.718;2022-08-26T13:34:11;33.95;;;7.35;;
28373;SDS011;15616;40.148;-102.718;2022-08-26T13:36:40;33.70;;;8.25;;
28373;SDS011;15616;40.148;-102.718;2022-08-26T13:39:09;33.42;;;7.60;;
28373;SDS011;15616;40.148;-102.718;2022-08-26T13:41:36;33.10;;;7.68;;
28373;SDS011;15616;40.148;-102.718;2022-08-26T13:44:02;34.03;;;7.80;;
28373;SDS011;15616;40.148;-102.718;2022-08-26T13:46:28;35.13;;;7.75;;
28373;SDS011;15616;40.148;-102.718;2022-08-26T13:48:57;30.05;;;8.38;;
28373;SDS011;15616;40.148;-102.718;2022-08-26T13:51:23;50.83;;;9.00;;
28373;SDS011;15616;40.148;-102.718;2022-08-26T13:53:50;34.25;;;7.80;;
28373;SDS011;15616;40.148;-102.718;2022-08-26T13:56:17;43.28;;;7.90;;
28373;SDS011;15616;40.148;-102.718;2022-08-26T13:58:44;34.58;;;8.00;;
28373;SDS011;15616;40.148;-102.718;2022-08-26T14:01:11;45.90;;;8.65;;
28373;SDS011;15616;40.148;-102.718;2022-08-26T14:03:37;40.33;;;8.55;;
28373;SDS011;15616;40.148;-102.718;2022-08-26T14:06:03;39.85;;;7.85;;
28373;SDS011;15616;40.148;-102.718;2022-08-26T14:08:29;28.75;;;7.13;;
28373;SDS011;15616;40.148;-102.718;2022-08-26T14:10:56;38.88;;;8.00;;
28373;SDS011;15616;40.148;-102.718;2022-08-26T14:13:23;32.75;;;7.70;;
28373;SDS011;15616;40.148;-102.718;2022-08-26T14:15:49;32.30;;;8.13;;
28373;SDS011;15616;40.148;-102.718;2022-08-26T14:18:16;30.00;;;7.47;;
28373;SDS011;15616;40.148;-102.718;2022-08-26T14:20:45;54.03;;;7.53;;
28373;SDS011;15616;40.148;-102.718;2022-08-26T14:23:13;33.35;;;7.97;;
28373;SDS011;15616;40.148;-102.718;2022-08-26T14:25:40;28.27;;;8.38;;
28373;SDS011;15616;40.148;-102.718;2022-08-26T14:28:06;34.72;;;7.38;;
28373;SDS011;15616;40.148;-102.718;2022-08-26T14:30:32;26.45;;;7.00;;
28373;SDS011;15616;40.148;-102.718;2022-08-26T14:32:58;30.15;;;7.45;;
28373;SDS011;15616;40.148;-102.718;2022-08-26T14:35:26;26.30;;;7.40;;
28373;SDS011;15616;40.148;-102.718;2022-08-26T14:37:54;35.85;;;7.35;;
28373;SDS011;15616;40.148;-102.718;2022-08-26T14:40:21;27.45;;;7.18;;
28373;SDS011;15616;40.148;-102.718;2022-08-26T14:42:49;28.15;;;7.30;;
28373;SDS011;15616;40.148;-102.718;2022-08-26T14:45:18;32.45;;;7.43;;
28373;SDS011;15616;40.148;-102.718;2022-08-26T14:47:47;27.27;;;7.32;;
28373;SDS011;15616;40.148;-102.718;2022-08-26T14:50:17;28.48;;;8.13;;
28373;SDS011;15616;40.148;-102.718;2022-08-26T14:52:45;22.75;;;7.00;;
28373;SDS011;15616;40.148;-102.718;2022-08-26T14:55:29;30.00;;;7.72;;
28373;SDS011;15616;40.148;-102.718;2022-08-26T14:57:58;28.55;;;7.80;;
28373;SDS011;15616;40.148;-102.718;2022-08-26T15:00:24;35.63;;;7.45;;
28373;SDS011;15616;40.148;-102.718;2022-08-26T15:02:50;30.45;;;7.53;;
28373;SDS011;15616;40.148;-102.718;2022-08-26T15:05:16;31.23;;;6.85;;
28373;SDS011;15616;40.148;-102.718;2022-08-26T15:07:42;27.90;;;7.22;;
28373;SDS011;15616;40.148;-102.718;2022-08-26T15:10:09;28.83;;;7.28;;
28373;SDS011;15616;40.148;-102.718;2022-08-26T15:12:37;26.63;;;6.72;;
28373;SDS011;15616;40.148;-102.718;2022-08-26T15:15:17;24.60;;;7.10;;
28373;SDS011;15616;40.148;-102.718;2022-08-26T15:17:43;22.50;;;6.88;;
28373;SDS011;15616;40.148;-102.718;2022-08-26T15:20:09;25.13;;;6.80;;
28373;SDS011;15616;40.148;-102.718;2022-08-26T15:22:38;23.77;;;6.68;;
28373;SDS011;15616;40.148;-102.718;2022-08-26T15:25:06;21.52;;;6.60;;
28373;SDS011;15616;40.148;-102.718;2022-08-26T15:27:33;20.15;;;6.50;;
28373;SDS011;15616;40.148;-102.718;2022-08-26T15:30:04;29.05;;;6.95;;
28373;SDS011;15616;40.148;-102.718;2022-08-26T15:32:33;22.40;;;6.93;;
28373;SDS011;15616;40.148;-102.718;2022-08-26T15:34:59;23.83;;;6.57;;
28373;SDS011;15616;40.148;-102.718;2022-08-26T15:37:25;24.67;;;6.60;;
28373;SDS011;15616;40.148;-102.718;2022-08-26T15:39:51;30.13;;;6.75;;
28373;SDS011;15616;40.148;-102.718;2022-08-26T15:42:17;20.15;;;6.57;;